createdAt,value
2017-04-25T00:00:18.103Z,1006.07
2017-04-25T00:01:40.278Z,1006.05
2017-04-25T00:03:02.470Z,1005.98
2017-04-25T00:04:24.030Z,1005.99
2017-04-25T00:05:46.228Z,1005.97
2017-04-25T00:07:07.911Z,1005.94
2017-04-25T00:08:30.339Z,1005.91
2017-04-25T00:09:52.323Z,1005.89
2017-04-25T00:11:14.344Z,1005.94
2017-04-25T00:12:35.619Z,1005.97
2017-04-25T00:13:58.197Z,1006.01
2017-04-25T00:15:19.849Z,1006.01
2017-04-25T00:16:42.401Z,1005.97
2017-04-25T00:18:04.580Z,1005.92
2017-04-25T00:19:27.148Z,1005.94
2017-04-25T00:20:49.328Z,1005.96
2017-04-25T00:22:11.946Z,1005.96
2017-04-25T00:23:34.149Z,1005.89
2017-04-25T00:24:56.692Z,1005.84
2017-04-25T00:26:17.918Z,1005.81
2017-04-25T00:27:39.459Z,1005.76
2017-04-25T00:29:01.329Z,1005.79
2017-04-25T00:30:23.808Z,1005.76
2017-04-25T00:31:45.400Z,1005.73
2017-04-25T00:33:07.588Z,1005.67
2017-04-25T00:34:29.448Z,1005.63
2017-04-25T00:35:51.560Z,1005.54
2017-04-25T00:37:13.127Z,1005.46
2017-04-25T00:38:34.347Z,1005.41
2017-04-25T00:39:56.222Z,1005.34
2017-04-25T00:41:17.788Z,1005.28
2017-04-25T00:42:39.415Z,1005.21
2017-04-25T00:44:01.600Z,1005.15
2017-04-25T00:45:23.783Z,1005.09
2017-04-25T00:46:45.892Z,1004.98
2017-04-25T00:48:07.807Z,1004.99
2017-04-25T00:49:29.819Z,1004.96
2017-04-25T00:50:51.764Z,1004.95
2017-04-25T00:52:13.665Z,1005
2017-04-25T00:53:35.212Z,1004.96
2017-04-25T00:54:57.499Z,1005.02
2017-04-25T00:56:19.392Z,1005.03
2017-04-25T00:57:41.830Z,1005.11
2017-04-25T00:59:03.819Z,1005.11
2017-04-25T01:00:25.756Z,1005.09
2017-04-25T01:01:46.979Z,1005.15
2017-04-25T01:03:08.769Z,1005.15
2017-04-25T01:04:30.309Z,1005.12
2017-04-25T01:05:52.259Z,1005.14
2017-04-25T01:07:14.149Z,1005.25
2017-04-25T01:08:36.040Z,1005.29
2017-04-25T01:09:57.902Z,1005.27
2017-04-25T01:11:20.099Z,1005.25
2017-04-25T01:12:41.970Z,1005.21
2017-04-25T01:14:04.827Z,1005.14
2017-04-25T01:15:26.692Z,1005.1
2017-04-25T01:16:48.580Z,1005.09
2017-04-25T01:18:10.758Z,1005.09
2017-04-25T01:19:32.869Z,1005.15
2017-04-25T01:20:55.049Z,1005.09
2017-04-25T01:22:16.709Z,1005.04
2017-04-25T01:23:38.578Z,1005.11
2017-04-25T01:25:00.158Z,1005.15
2017-04-25T01:26:22.338Z,1005.13
2017-04-25T01:27:44.199Z,1005.15
2017-04-25T01:29:06.389Z,1005.13
2017-04-25T01:30:28.913Z,1005.07
2017-04-25T01:31:50.779Z,1004.99
2017-04-25T01:33:12.649Z,1004.93
2017-04-25T01:34:34.909Z,1004.89
2017-04-25T01:35:57.438Z,1004.89
2017-04-25T01:37:19.313Z,1004.96
2017-04-25T01:38:40.923Z,1004.91
2017-04-25T01:40:02.785Z,1004.93
2017-04-25T01:41:25.029Z,1004.9
2017-04-25T01:42:47.200Z,1004.84
2017-04-25T01:44:09.486Z,1004.85
2017-04-25T01:45:31.334Z,1004.76
2017-04-25T01:46:53.930Z,1004.67
2017-04-25T01:48:16.113Z,1004.77
2017-04-25T01:49:37.979Z,1004.76
2017-04-25T01:50:59.891Z,1004.74
2017-04-25T01:52:22.005Z,1004.74
2017-04-25T01:53:43.553Z,1004.7
2017-04-25T01:55:05.127Z,1004.73
2017-04-25T01:56:26.972Z,1004.7
2017-04-25T01:57:49.391Z,1004.68
2017-04-25T01:59:11.248Z,1004.63
2017-04-25T02:00:33.110Z,1004.6
2017-04-25T02:01:54.704Z,1004.53
2017-04-25T02:03:16.952Z,1004.57
2017-04-25T02:04:39.148Z,1004.56
2017-04-25T02:06:00.699Z,1004.55
2017-04-25T02:07:22.589Z,1004.5
2017-04-25T02:08:44.449Z,1004.51
2017-04-25T02:10:06.669Z,1004.6
2017-04-25T02:11:28.607Z,1004.59
2017-04-25T02:12:49.938Z,1004.58
2017-04-25T02:14:12.173Z,1004.55
2017-04-25T02:15:34.402Z,1004.48
2017-04-25T02:16:56.378Z,1004.46
2017-04-25T02:18:17.921Z,1004.48
2017-04-25T02:19:40.806Z,1004.47
2017-04-25T02:21:02.447Z,1004.51
2017-04-25T02:22:24.638Z,1004.49
2017-04-25T02:23:46.497Z,1004.47
2017-04-25T02:25:08.329Z,1004.41
2017-04-25T02:26:29.547Z,1004.46
2017-04-25T02:27:51.735Z,1004.42
2017-04-25T02:29:14.239Z,1004.43
2017-04-25T02:30:36.363Z,1004.44
2017-04-25T02:31:58.887Z,1004.4
2017-04-25T02:33:21.128Z,1004.37
2017-04-25T02:34:43.658Z,1004.33
2017-04-25T02:36:06.140Z,1004.28
2017-04-25T02:37:28.067Z,1004.29
2017-04-25T02:38:49.619Z,1004.27
2017-04-25T02:40:11.627Z,1004.22
2017-04-25T02:41:33.204Z,1004.2
2017-04-25T02:42:55.138Z,1004.2
2017-04-25T02:44:17.008Z,1004.2
2017-04-25T02:45:39.209Z,1004.17
2017-04-25T02:47:01.958Z,1004.18
2017-04-25T02:48:24.158Z,1004.11
2017-04-25T02:49:46.357Z,1004.1
2017-04-25T02:51:08.529Z,1004.14
2017-04-25T02:52:30.657Z,1004.14
2017-04-25T02:53:52.257Z,1004.05
2017-04-25T02:55:14.751Z,1004.07
2017-04-25T02:56:36.968Z,1004.08
2017-04-25T02:57:58.808Z,1004.05
2017-04-25T02:59:21.001Z,1004.01
2017-04-25T03:00:43.189Z,1003.97
2017-04-25T03:02:05.071Z,1004.01
2017-04-25T03:03:27.512Z,1004.03
2017-04-25T03:04:49.061Z,1003.95
2017-04-25T03:06:11.257Z,1003.86
2017-04-25T03:07:32.574Z,1003.76
2017-04-25T03:08:54.358Z,1003.73
2017-04-25T03:10:16.858Z,1003.68
2017-04-25T03:11:38.741Z,1003.77
2017-04-25T03:13:00.309Z,1003.73
2017-04-25T03:14:22.909Z,1003.75
2017-04-25T03:15:44.782Z,1003.71
2017-04-25T03:17:06.365Z,1003.75
2017-04-25T03:18:27.587Z,1003.78
2017-04-25T03:19:49.392Z,1003.75
2017-04-25T03:21:11.265Z,1003.78
2017-04-25T03:22:32.817Z,1003.8
2017-04-25T03:23:54.998Z,1003.83
2017-04-25T03:25:17.199Z,1003.77
2017-04-25T03:26:38.434Z,1003.74
2017-04-25T03:28:00.007Z,1003.71
2017-04-25T03:29:22.621Z,1003.76
2017-04-25T03:30:45.046Z,1003.79
2017-04-25T03:32:07.678Z,1003.83
2017-04-25T03:33:28.586Z,1003.8
2017-04-25T03:34:50.560Z,1003.75
2017-04-25T03:36:13.153Z,1003.7
2017-04-25T03:37:35.507Z,1003.71
2017-04-25T03:38:57.408Z,1003.69
2017-04-25T03:40:19.295Z,1003.72
2017-04-25T03:41:41.240Z,1003.69
2017-04-25T03:43:02.798Z,1003.7
2017-04-25T03:44:24.047Z,1003.67
2017-04-25T03:45:45.698Z,1003.64
2017-04-25T03:47:07.918Z,1003.59
2017-04-25T03:48:29.779Z,1003.53
2017-04-25T03:49:51.654Z,1003.47
2017-04-25T03:51:12.879Z,1003.43
2017-04-25T03:52:35.409Z,1003.45
2017-04-25T03:53:57.598Z,1003.46
2017-04-25T03:55:19.468Z,1003.47
2017-04-25T03:56:41.344Z,1003.44
2017-04-25T03:58:03.858Z,1003.43
2017-04-25T03:59:25.817Z,1003.45
2017-04-25T04:00:47.395Z,1003.51
2017-04-25T04:02:09.628Z,1003.53
2017-04-25T04:03:32.387Z,1003.51
2017-04-25T04:04:54.334Z,1003.5
2017-04-25T04:06:15.994Z,1003.51
2017-04-25T04:07:37.212Z,1003.51
2017-04-25T04:08:59.679Z,1003.45
2017-04-25T04:10:21.968Z,1003.42
2017-04-25T04:11:43.839Z,1003.39
2017-04-25T04:13:05.699Z,1003.38
2017-04-25T04:14:28.182Z,1003.4
2017-04-25T04:15:50.068Z,1003.41
2017-04-25T04:17:12.240Z,1003.4
2017-04-25T04:18:33.840Z,1003.35
2017-04-25T04:19:56.423Z,1003.26
2017-04-25T04:21:17.975Z,1003.21
2017-04-25T04:22:39.856Z,1003.21
2017-04-25T04:24:02.028Z,1003.3
2017-04-25T04:25:24.826Z,1003.41
2017-04-25T04:26:46.997Z,1003.45
2017-04-25T04:28:08.655Z,1003.52
2017-04-25T04:29:30.247Z,1003.49
2017-04-25T04:30:52.742Z,1003.47
2017-04-25T04:32:14.956Z,1003.49
2017-04-25T04:33:36.173Z,1003.49
2017-04-25T04:34:58.034Z,1003.37
2017-04-25T04:36:19.941Z,1003.42
2017-04-25T04:37:42.167Z,1003.41
2017-04-25T04:39:04.469Z,1003.38
2017-04-25T04:40:26.736Z,1003.47
2017-04-25T04:41:49.238Z,1003.4
2017-04-25T04:43:10.770Z,1003.38
2017-04-25T04:44:32.997Z,1003.39
2017-04-25T04:45:54.886Z,1003.42
2017-04-25T04:47:17.348Z,1003.46
2017-04-25T04:48:38.621Z,1003.4
2017-04-25T04:50:00.495Z,1003.37
2017-04-25T04:51:22.288Z,1003.45
2017-04-25T04:52:44.505Z,1003.41
2017-04-25T04:54:06.387Z,1003.36
2017-04-25T04:55:28.618Z,1003.37
2017-04-25T04:56:50.188Z,1003.26
2017-04-25T04:58:12.323Z,1003.16
2017-04-25T04:59:34.863Z,1003.2
2017-04-25T05:00:56.834Z,1003.23
2017-04-25T05:02:19.020Z,1003.28
2017-04-25T05:03:40.925Z,1003.27
2017-04-25T05:05:03.147Z,1003.32
2017-04-25T05:06:25.147Z,1003.34
2017-04-25T05:07:47.068Z,1003.37
2017-04-25T05:09:09.617Z,1003.39
2017-04-25T05:10:31.175Z,1003.38
2017-04-25T05:11:53.043Z,1003.41
2017-04-25T05:13:15.281Z,1003.39
2017-04-25T05:14:37.723Z,1003.35
2017-04-25T05:15:59.286Z,1003.41
2017-04-25T05:17:21.157Z,1003.39
2017-04-25T05:18:43.361Z,1003.47
2017-04-25T05:20:05.867Z,1003.47
2017-04-25T05:21:27.777Z,1003.45
2017-04-25T05:22:49.710Z,1003.5
2017-04-25T05:24:11.591Z,1003.46
2017-04-25T05:25:34.442Z,1003.5
2017-04-25T05:26:55.986Z,1003.49
2017-04-25T05:28:18.178Z,1003.44
2017-04-25T05:29:40.476Z,1003.46
2017-04-25T05:31:02.314Z,1003.41
2017-04-25T05:32:24.820Z,1003.44
2017-04-25T05:33:47.020Z,1003.45
2017-04-25T05:35:08.908Z,1003.48
2017-04-25T05:36:31.038Z,1003.56
2017-04-25T05:37:53.260Z,1003.57
2017-04-25T05:39:15.146Z,1003.56
2017-04-25T05:40:37.349Z,1003.63
2017-04-25T05:41:59.578Z,1003.64
2017-04-25T05:43:21.448Z,1003.63
2017-04-25T05:44:43.050Z,1003.61
2017-04-25T05:46:05.561Z,1003.65
2017-04-25T05:47:28.506Z,1003.67
2017-04-25T05:48:50.485Z,1003.87
2017-04-25T05:50:12.685Z,1003.75
2017-04-25T05:51:34.307Z,1003.96
2017-04-25T05:52:56.498Z,1003.8
2017-04-25T05:54:18.378Z,1004.04
2017-04-25T05:55:40.247Z,1003.88
2017-04-25T05:57:01.798Z,1003.87
2017-04-25T05:58:23.940Z,1004.01
2017-04-25T05:59:45.930Z,1003.94
2017-04-25T06:01:08.128Z,1003.94
2017-04-25T06:02:29.679Z,1004.02
2017-04-25T06:03:51.467Z,1003.98
2017-04-25T06:05:13.373Z,1004.11
2017-04-25T06:06:35.484Z,1004.27
2017-04-25T06:07:57.366Z,1003.98
2017-04-25T06:09:19.537Z,1004.11
2017-04-25T06:10:41.789Z,1004.03
2017-04-25T06:12:04.179Z,1003.98
2017-04-25T06:13:26.638Z,1004.03
2017-04-25T06:14:48.718Z,1004.09
2017-04-25T06:16:10.872Z,1004.37
2017-04-25T06:17:32.688Z,1004.13
2017-04-25T06:18:54.537Z,1004.13
2017-04-25T06:20:16.018Z,1004.05
2017-04-25T06:21:38.219Z,1004.1
2017-04-25T06:23:00.370Z,1004.09
2017-04-25T06:24:22.188Z,1004.06
2017-04-25T06:25:44.648Z,1004.08
2017-04-25T06:27:06.801Z,1004.13
2017-04-25T06:28:28.949Z,1004.1
2017-04-25T06:29:51.410Z,1004.05
2017-04-25T06:31:13.894Z,1004.22
2017-04-25T06:32:36.378Z,1004.14
2017-04-25T06:33:58.229Z,1004.15
2017-04-25T06:35:20.745Z,1004.45
2017-04-25T06:36:42.877Z,1004.21
2017-04-25T06:38:05.044Z,1004.2
2017-04-25T06:39:26.887Z,1004.29
2017-04-25T06:40:48.731Z,1004.33
2017-04-25T06:42:11.219Z,1004.35
2017-04-25T06:43:33.688Z,1004.18
2017-04-25T06:44:54.908Z,1004.46
2017-04-25T06:46:16.736Z,1004.17
2017-04-25T06:47:39.238Z,1004.42
2017-04-25T06:49:01.060Z,1004.4
2017-04-25T06:50:23.517Z,1004.13
2017-04-25T06:51:45.360Z,1004.46
2017-04-25T06:53:07.821Z,1004.58
2017-04-25T06:54:29.090Z,1004.59
2017-04-25T06:55:50.605Z,1004.65
2017-04-25T06:57:12.446Z,1004.62
2017-04-25T06:58:34.611Z,1004.61
2017-04-25T06:59:56.855Z,1004.7
2017-04-25T07:01:18.757Z,1004.6
2017-04-25T07:02:40.609Z,1004.29
2017-04-25T07:04:03.332Z,1004.36
2017-04-25T07:05:25.577Z,1004.37
2017-04-25T07:06:47.768Z,1004.34
2017-04-25T07:08:09.282Z,1004.43
2017-04-25T07:09:31.687Z,1004.34
2017-04-25T07:10:54.262Z,1004.28
2017-04-25T07:12:16.228Z,1004.68
2017-04-25T07:13:37.788Z,1004.67
2017-04-25T07:15:00.392Z,1004.73
2017-04-25T07:16:22.224Z,1004.53
2017-04-25T07:17:43.731Z,1004.62
2017-04-25T07:19:05.247Z,1004.63
2017-04-25T07:20:27.418Z,1004.65
2017-04-25T07:21:49.321Z,1004.23
2017-04-25T07:23:11.156Z,1004.31
2017-04-25T07:24:33.323Z,1004.31
2017-04-25T07:25:55.730Z,1004.73
2017-04-25T07:27:16.934Z,1004.45
2017-04-25T07:28:38.474Z,1004.39
2017-04-25T07:30:00.050Z,1004.62
2017-04-25T07:31:22.565Z,1004.3
2017-04-25T07:32:44.146Z,1004.39
2017-04-25T07:34:05.989Z,1004.26
2017-04-25T07:35:28.440Z,1004.82
2017-04-25T07:36:50.400Z,1004.78
2017-04-25T07:38:12.868Z,1004.44
2017-04-25T07:39:35.346Z,1004.72
2017-04-25T07:40:57.842Z,1004.67
2017-04-25T07:42:20.291Z,1004.62
2017-04-25T07:43:42.139Z,1004.59
2017-04-25T07:45:03.985Z,1004.49
2017-04-25T07:46:25.673Z,1004.72
2017-04-25T07:47:48.140Z,1004.54
2017-04-25T07:49:10.289Z,1004.82
2017-04-25T07:50:32.454Z,1004.76
2017-04-25T07:51:54.403Z,1004.58
2017-04-25T07:53:16.654Z,1004.75
2017-04-25T07:54:38.562Z,1004.41
2017-04-25T07:56:00.704Z,1004.56
2017-04-25T07:57:22.532Z,1004.46
2017-04-25T07:58:45.308Z,1004.48
2017-04-25T08:00:07.175Z,1004.48
2017-04-25T08:01:29.648Z,1004.46
2017-04-25T08:02:51.607Z,1004.32
2017-04-25T08:04:14.348Z,1004.51
2017-04-25T08:05:36.628Z,1004.57
2017-04-25T08:06:58.161Z,1004.55
2017-04-25T08:08:20.310Z,1004.51
2017-04-25T08:09:42.819Z,1004.49
2017-04-25T08:11:05.308Z,1004.57
2017-04-25T08:12:26.817Z,1004.52
2017-04-25T08:13:48.022Z,1004.65
2017-04-25T08:15:10.789Z,1004.56
2017-04-25T08:16:32.323Z,1004.71
2017-04-25T08:17:53.538Z,1004.64
2017-04-25T08:19:15.378Z,1004.7
2017-04-25T08:20:38.175Z,1004.72
2017-04-25T08:22:00.342Z,1004.7
2017-04-25T08:23:22.960Z,1004.61
2017-04-25T08:24:45.099Z,1004.59
2017-04-25T08:26:07.217Z,1004.57
2017-04-25T08:27:29.068Z,1004.61
2017-04-25T08:28:50.897Z,1004.65
2017-04-25T08:30:12.746Z,1004.65
2017-04-25T08:31:35.338Z,1004.59
2017-04-25T08:32:57.378Z,1004.5
2017-04-25T08:34:19.521Z,1004.6
2017-04-25T08:35:41.671Z,1004.54
2017-04-25T08:37:04.487Z,1004.56
2017-04-25T08:38:26.015Z,1004.55
2017-04-25T08:39:48.268Z,1004.53
2017-04-25T08:41:10.489Z,1004.55
2017-04-25T08:42:32.600Z,1004.51
2017-04-25T08:43:55.080Z,1004.6
2017-04-25T08:45:17.248Z,1004.7
2017-04-25T08:46:39.146Z,1004.77
2017-04-25T08:48:02.055Z,1004.65
2017-04-25T08:49:24.233Z,1004.71
2017-04-25T08:50:46.064Z,1004.66
2017-04-25T08:52:07.907Z,1004.66
2017-04-25T08:53:29.139Z,1004.64
2017-04-25T08:54:50.449Z,1004.62
2017-04-25T08:56:12.607Z,1004.59
2017-04-25T08:57:34.469Z,1004.65
2017-04-25T08:58:56.240Z,1004.63
2017-04-25T09:00:18.508Z,1004.62
2017-04-25T09:01:40.967Z,1004.65
2017-04-25T09:03:03.108Z,1004.59
2017-04-25T09:04:25.529Z,1004.66
2017-04-25T09:05:48.028Z,1004.73
2017-04-25T09:07:10.519Z,1004.73
2017-04-25T09:08:32.688Z,1004.84
2017-04-25T09:09:55.087Z,1004.84
2017-04-25T09:11:16.745Z,1004.76
2017-04-25T09:12:37.945Z,1004.86
2017-04-25T09:13:59.786Z,1004.87
2017-04-25T09:15:21.950Z,1004.81
2017-04-25T09:16:43.875Z,1004.83
2017-04-25T09:18:06.067Z,1004.83
2017-04-25T09:19:27.372Z,1004.79
2017-04-25T09:20:49.479Z,1004.74
2017-04-25T09:22:11.624Z,1004.75
2017-04-25T09:23:34.081Z,1004.74
2017-04-25T09:24:56.548Z,1004.67
2017-04-25T09:26:19.407Z,1004.7
2017-04-25T09:27:40.969Z,1004.72
2017-04-25T09:29:02.467Z,1004.74
2017-04-25T09:30:24.000Z,1004.8
2017-04-25T09:31:45.758Z,1004.78
2017-04-25T09:33:07.919Z,1004.76
2017-04-25T09:34:30.064Z,1004.76
2017-04-25T09:35:52.193Z,1004.8
2017-04-25T09:37:14.348Z,1004.84
2017-04-25T09:38:35.878Z,1004.73
2017-04-25T09:39:58.050Z,1004.79
2017-04-25T09:41:19.597Z,1004.87
2017-04-25T09:42:41.997Z,1004.89
2017-04-25T09:44:03.854Z,1004.85
2017-04-25T09:45:25.727Z,1004.98
2017-04-25T09:46:47.877Z,1005.02
2017-04-25T09:48:09.650Z,1004.94
2017-04-25T09:49:31.851Z,1004.96
2017-04-25T09:50:54.008Z,1004.95
2017-04-25T09:52:16.156Z,1004.94
2017-04-25T09:53:37.658Z,1005.18
2017-04-25T09:54:59.678Z,1005.7
2017-04-25T09:56:21.850Z,1005.72
2017-04-25T09:57:43.351Z,1005.67
2017-04-25T09:59:05.120Z,1005.7
2017-04-25T10:00:27.367Z,1005.85
2017-04-25T10:01:49.550Z,1006.09
2017-04-25T10:03:10.774Z,1005.87
2017-04-25T10:04:33.214Z,1005.89
2017-04-25T10:05:55.058Z,1005.93
2017-04-25T10:07:17.207Z,1005.98
2017-04-25T10:08:39.377Z,1006
2017-04-25T10:10:01.431Z,1005.98
2017-04-25T10:11:23.909Z,1005.92
2017-04-25T10:12:46.403Z,1005.99
2017-04-25T10:14:08.557Z,1006.02
2017-04-25T10:15:30.758Z,1006.08
2017-04-25T10:16:52.996Z,1006.06
2017-04-25T10:18:15.136Z,1006.09
2017-04-25T10:19:37.349Z,1006
2017-04-25T10:20:59.794Z,1006.05
2017-04-25T10:22:20.997Z,1006.07
2017-04-25T10:23:42.493Z,1006
2017-04-25T10:25:04.660Z,1006.09
2017-04-25T10:26:27.367Z,1006.08
2017-04-25T10:27:49.305Z,1006.17
2017-04-25T10:29:10.849Z,1006.15
2017-04-25T10:30:32.670Z,1006.18
2017-04-25T10:31:54.628Z,1006.15
2017-04-25T10:33:17.102Z,1006.1
2017-04-25T10:34:39.269Z,1006.17
2017-04-25T10:36:01.754Z,1006.06
2017-04-25T10:37:23.827Z,1006.16
2017-04-25T10:38:46.073Z,1006.2
2017-04-25T10:40:08.014Z,1006.32
2017-04-25T10:41:30.494Z,1006.42
2017-04-25T10:42:53.299Z,1006.41
2017-04-25T10:44:15.164Z,1006.5
2017-04-25T10:45:36.798Z,1006.54
2017-04-25T10:46:58.662Z,1006.6
2017-04-25T10:48:21.447Z,1006.68
2017-04-25T10:49:43.643Z,1006.56
2017-04-25T10:51:05.247Z,1006.58
2017-04-25T10:52:27.377Z,1006.6
2017-04-25T10:53:49.768Z,1006.57
2017-04-25T10:55:11.931Z,1006.64
2017-04-25T10:56:34.066Z,1006.6
2017-04-25T10:57:55.899Z,1006.6
2017-04-25T10:59:17.672Z,1006.56
2017-04-25T11:00:39.248Z,1006.63
2017-04-25T11:02:01.097Z,1006.64
2017-04-25T11:03:23.683Z,1006.65
2017-04-25T11:04:46.678Z,1006.72
2017-04-25T11:06:08.534Z,1006.68
2017-04-25T11:07:30.369Z,1006.73
2017-04-25T11:08:52.202Z,1006.7
2017-04-25T11:10:14.025Z,1006.65
2017-04-25T11:11:36.212Z,1006.62
2017-04-25T11:12:58.367Z,1006.62
2017-04-25T11:14:20.528Z,1006.69
2017-04-25T11:15:43.422Z,1006.64
2017-04-25T11:17:05.878Z,1006.66
2017-04-25T11:18:28.089Z,1006.84
2017-04-25T11:19:49.933Z,1006.78
2017-04-25T11:21:12.013Z,1006.62
2017-04-25T11:22:33.848Z,1006.76
2017-04-25T11:23:56.018Z,1006.69
2017-04-25T11:25:18.169Z,1006.76
2017-04-25T11:26:39.957Z,1006.86
2017-04-25T11:28:01.815Z,1006.93
2017-04-25T11:29:23.665Z,1006.91
2017-04-25T11:30:45.819Z,1006.95
2017-04-25T11:32:08.291Z,1006.97
2017-04-25T11:33:30.218Z,1006.97
2017-04-25T11:34:52.100Z,1007.04
2017-04-25T11:36:13.925Z,1007.04
2017-04-25T11:37:35.758Z,1007.03
2017-04-25T11:38:57.590Z,1007.13
2017-04-25T11:40:19.767Z,1007.07
2017-04-25T11:41:41.604Z,1007.01
2017-04-25T11:43:03.468Z,1007.02
2017-04-25T11:44:25.327Z,1007.01
2017-04-25T11:45:47.837Z,1007.04
2017-04-25T11:47:10.309Z,1006.97
2017-04-25T11:48:32.434Z,1006.92
2017-04-25T11:49:54.911Z,1006.92
2017-04-25T11:51:17.377Z,1006.97
2017-04-25T11:52:39.229Z,1006.95
2017-04-25T11:54:01.415Z,1007.01
2017-04-25T11:55:23.482Z,1007.14
2017-04-25T11:56:45.671Z,1007.25
2017-04-25T11:58:07.230Z,1007.18
2017-04-25T11:59:29.407Z,1007.13
2017-04-25T12:00:51.558Z,1007.15
2017-04-25T12:02:13.059Z,1007.17
2017-04-25T12:03:35.528Z,1007.13
2017-04-25T12:04:57.774Z,1007.29
2017-04-25T12:06:19.621Z,1007.23
2017-04-25T12:07:42.126Z,1007.27
2017-04-25T12:09:04.056Z,1007.3
2017-04-25T12:10:26.543Z,1007.29
2017-04-25T12:11:48.718Z,1007.26
2017-04-25T12:13:10.946Z,1007.3
2017-04-25T12:14:32.960Z,1007.28
2017-04-25T12:15:55.795Z,1007.33
2017-04-25T12:17:17.628Z,1007.34
2017-04-25T12:18:39.151Z,1007.24
2017-04-25T12:20:00.993Z,1007.27
2017-04-25T12:21:23.310Z,1007.22
2017-04-25T12:22:45.257Z,1007.29
2017-04-25T12:24:06.768Z,1007.26
2017-04-25T12:25:28.606Z,1007.31
2017-04-25T12:26:50.700Z,1007.35
2017-04-25T12:28:12.586Z,1007.37
2017-04-25T12:29:34.807Z,1007.37
2017-04-25T12:30:56.634Z,1007.32
2017-04-25T12:32:19.039Z,1007.31
2017-04-25T12:33:41.279Z,1007.33
2017-04-25T12:35:03.558Z,1007.38
2017-04-25T12:36:25.719Z,1007.42
2017-04-25T12:37:47.870Z,1007.52
2017-04-25T12:39:10.075Z,1007.56
2017-04-25T12:40:31.928Z,1007.45
2017-04-25T12:41:54.377Z,1007.54
2017-04-25T12:43:16.167Z,1007.68
2017-04-25T12:44:38.308Z,1007.86
2017-04-25T12:46:00.509Z,1008.04
2017-04-25T12:47:22.646Z,1007.86
2017-04-25T12:48:45.108Z,1007.82
2017-04-25T12:50:07.320Z,1007.75
2017-04-25T12:51:29.777Z,1007.76
2017-04-25T12:52:51.290Z,1007.72
2017-04-25T12:54:14.100Z,1007.79
2017-04-25T12:55:36.296Z,1007.69
2017-04-25T12:56:58.221Z,1007.62
2017-04-25T12:58:20.075Z,1007.62
2017-04-25T12:59:42.238Z,1007.65
2017-04-25T13:01:04.067Z,1007.74
2017-04-25T13:02:26.228Z,1007.8
2017-04-25T13:03:48.150Z,1007.69
2017-04-25T13:05:10.921Z,1007.71
2017-04-25T13:06:32.939Z,1007.79
2017-04-25T13:07:54.828Z,1007.82
2017-04-25T13:09:17.325Z,1007.79
2017-04-25T13:10:39.157Z,1007.84
2017-04-25T13:12:00.717Z,1007.87
2017-04-25T13:13:22.245Z,1007.85
2017-04-25T13:14:44.417Z,1007.95
2017-04-25T13:16:06.840Z,1008.04
2017-04-25T13:17:28.361Z,1007.99
2017-04-25T13:18:50.219Z,1008.01
2017-04-25T13:20:12.712Z,1008.09
2017-04-25T13:21:35.146Z,1008.09
2017-04-25T13:22:56.362Z,1008.14
2017-04-25T13:24:18.955Z,1008.12
2017-04-25T13:25:41.278Z,1008.08
2017-04-25T13:27:03.708Z,1008.04
2017-04-25T13:28:25.639Z,1008.05
2017-04-25T13:29:48.153Z,1008.05
2017-04-25T13:31:10.534Z,1008.08
2017-04-25T13:32:33.348Z,1008.06
2017-04-25T13:33:55.540Z,1008.07
2017-04-25T13:35:17.396Z,1008.08
2017-04-25T13:36:39.579Z,1008.08
2017-04-25T13:38:01.749Z,1008.11
2017-04-25T13:39:23.968Z,1008.18
2017-04-25T13:40:46.449Z,1008.34
2017-04-25T13:42:08.307Z,1008.24
2017-04-25T13:43:29.787Z,1008.2
2017-04-25T13:44:51.960Z,1008.36
2017-04-25T13:46:14.111Z,1008.43
2017-04-25T13:47:35.679Z,1008.5
2017-04-25T13:48:58.188Z,1008.37
2017-04-25T13:50:20.512Z,1008.36
2017-04-25T13:51:42.713Z,1008.31
2017-04-25T13:53:04.875Z,1008.27
2017-04-25T13:54:27.683Z,1008.23
2017-04-25T13:55:49.896Z,1008.28
2017-04-25T13:57:11.742Z,1008.09
2017-04-25T13:58:33.897Z,1008.33
2017-04-25T13:59:56.368Z,1008.32
2017-04-25T14:01:18.700Z,1008.18
2017-04-25T14:02:40.604Z,1008.25
2017-04-25T14:04:02.441Z,1008.25
2017-04-25T14:05:24.679Z,1008.34
2017-04-25T14:06:46.895Z,1008.31
2017-04-25T14:08:09.405Z,1008.33
2017-04-25T14:09:31.289Z,1008.34
2017-04-25T14:10:53.604Z,1008.34
2017-04-25T14:12:16.143Z,1008.36
2017-04-25T14:13:37.662Z,1008.48
2017-04-25T14:14:59.477Z,1008.5
2017-04-25T14:16:21.947Z,1008.51
2017-04-25T14:17:43.219Z,1008.44
2017-04-25T14:19:05.686Z,1008.52
2017-04-25T14:20:27.528Z,1008.65
2017-04-25T14:21:50.041Z,1008.56
2017-04-25T14:23:12.178Z,1008.58
2017-04-25T14:24:34.421Z,1008.61
2017-04-25T14:25:56.036Z,1008.59
2017-04-25T14:27:18.653Z,1008.62
2017-04-25T14:28:40.801Z,1008.6
2017-04-25T14:30:03.416Z,1008.65
2017-04-25T14:31:25.053Z,1008.61
2017-04-25T14:32:47.142Z,1008.67
2017-04-25T14:34:09.324Z,1008.72
2017-04-25T14:35:31.617Z,1008.69
2017-04-25T14:36:53.536Z,1008.69
2017-04-25T14:38:16.009Z,1008.71
2017-04-25T14:39:37.867Z,1008.73
2017-04-25T14:40:59.797Z,1008.68
2017-04-25T14:42:22.369Z,1008.74
2017-04-25T14:43:45.107Z,1008.77
2017-04-25T14:45:07.307Z,1008.78
2017-04-25T14:46:29.777Z,1008.67
2017-04-25T14:47:51.926Z,1008.8
2017-04-25T14:49:14.388Z,1008.77
2017-04-25T14:50:35.606Z,1008.8
2017-04-25T14:51:57.123Z,1008.86
2017-04-25T14:53:18.964Z,1008.94
2017-04-25T14:54:41.397Z,1008.89
2017-04-25T14:56:03.577Z,1008.81
2017-04-25T14:57:25.748Z,1008.75
2017-04-25T14:58:48.252Z,1008.78
2017-04-25T15:00:10.327Z,1008.72
2017-04-25T15:01:32.790Z,1008.75
2017-04-25T15:02:55.278Z,1008.68
2017-04-25T15:04:16.799Z,1008.71
2017-04-25T15:05:38.897Z,1008.65
2017-04-25T15:07:00.738Z,1008.64
2017-04-25T15:08:23.592Z,1008.64
2017-04-25T15:09:45.844Z,1008.65
2017-04-25T15:11:07.720Z,1008.71
2017-04-25T15:12:30.246Z,1008.68
2017-04-25T15:13:52.083Z,1008.73
2017-04-25T15:15:14.552Z,1008.74
2017-04-25T15:16:37.069Z,1008.79
2017-04-25T15:17:58.910Z,1008.81
2017-04-25T15:19:21.095Z,1008.82
2017-04-25T15:20:43.088Z,1008.89
2017-04-25T15:22:05.867Z,1008.85
2017-04-25T15:23:28.515Z,1008.91
2017-04-25T15:24:50.041Z,1008.85
2017-04-25T15:26:11.878Z,1008.78
2017-04-25T15:27:34.003Z,1008.84
2017-04-25T15:28:56.158Z,1008.87
2017-04-25T15:30:18.008Z,1008.85
2017-04-25T15:31:40.502Z,1008.82
2017-04-25T15:33:03.036Z,1008.8
2017-04-25T15:34:25.502Z,1008.82
2017-04-25T15:35:47.656Z,1008.79
2017-04-25T15:37:10.139Z,1008.8
2017-04-25T15:38:32.560Z,1008.88
2017-04-25T15:39:54.806Z,1008.9
2017-04-25T15:41:16.942Z,1008.89
2017-04-25T15:42:38.834Z,1008.87
2017-04-25T15:44:01.699Z,1008.92
2017-04-25T15:45:23.247Z,1008.98
2017-04-25T15:46:45.738Z,1008.99
2017-04-25T15:48:08.003Z,1009.08
2017-04-25T15:49:29.917Z,1009
2017-04-25T15:50:52.103Z,1009.11
2017-04-25T15:52:14.632Z,1009.15
2017-04-25T15:53:37.118Z,1009.05
2017-04-25T15:54:59.386Z,1009.06
2017-04-25T15:56:20.928Z,1009.13
2017-04-25T15:57:43.417Z,1009.08
2017-04-25T15:59:05.616Z,1009.04
2017-04-25T16:00:28.016Z,1009.06
2017-04-25T16:02:22.156Z,1009.07
2017-04-25T16:03:44.768Z,1008.95
2017-04-25T16:05:07.608Z,1008.95
2017-04-25T16:06:30.464Z,1008.89
2017-04-25T16:07:52.317Z,1008.93
2017-04-25T16:09:14.495Z,1008.89
2017-04-25T16:10:36.585Z,1008.93
2017-04-25T16:11:58.739Z,1008.98
2017-04-25T16:13:20.608Z,1009.07
2017-04-25T16:14:42.774Z,1009.06
2017-04-25T16:16:05.535Z,1009.06
2017-04-25T16:17:27.677Z,1009.06
2017-04-25T16:18:49.207Z,1009.05
2017-04-25T16:20:11.694Z,1009.06
2017-04-25T16:21:34.428Z,1009.04
2017-04-25T16:22:56.594Z,1009.06
2017-04-25T16:24:18.449Z,1009.1
2017-04-25T16:25:40.940Z,1009.05
2017-04-25T16:27:03.147Z,1009.1
2017-04-25T16:28:25.314Z,1009.12
2017-04-25T16:29:47.488Z,1009.16
2017-04-25T16:31:09.475Z,1009.14
2017-04-25T16:32:32.305Z,1009.13
2017-04-25T16:33:54.516Z,1009.11
2017-04-25T16:35:16.379Z,1009.05
2017-04-25T16:36:38.516Z,1009.13